sensor_id;sensor_type;location;lat;lon;timestamp;pressure;altitude;pressure_sealevel;temperature;humidity
28181;BME280;15464;50.988;10.318;2023-05-03T00:02:21;100059.59;;;3.54;77.21
28181;BME280;15464;50.988;10.318;2023-05-03T00:04:51;100064.28;;;3.46;77.71
28181;BME280;15464;50.988;10.318;2023-05-03T00:07:19;100056.59;;;3.42;78.26
28181;BME280;15464;50.988;10.318;2023-05-03T00:09:48;100058.78;;;3.31;79.16
28181;BME280;15464;50.988;10.318;2023-05-03T00:12:15;100056.28;;;3.28;78.40
28181;BME280;15464;50.988;10.318;2023-05-03T00:14:41;100059.06;;;3.23;78.62
28181;BME280;15464;50.988;10.318;2023-05-03T00:17:08;100057.47;;;3.19;78.86
28181;BME280;15464;50.988;10.318;2023-05-03T00:19:35;100061.06;;;3.16;79.34
28181;BME280;15464;50.988;10.318;2023-05-03T00:22:02;100067.31;;;3.12;79.25
28181;BME280;15464;50.988;10.318;2023-05-03T00:24:29;100076.22;;;3.08;79.22
28181;BME280;15464;50.988;10.318;2023-05-03T00:26:56;100070.25;;;3.05;79.16
28181;BME280;15464;50.988;10.318;2023-05-03T00:29:23;100070.25;;;3.05;78.66
28181;BME280;15464;50.988;10.318;2023-05-03T00:31:49;100074.72;;;3.01;79.89
28181;BME280;15464;50.988;10.318;2023-05-03T00:34:16;100066.09;;;2.99;79.78
28181;BME280;15464;50.988;10.318;2023-05-03T00:36:43;100064.59;;;2.92;79.93
28181;BME280;15464;50.988;10.318;2023-05-03T00:39:09;100057.69;;;2.90;80.01
28181;BME280;15464;50.988;10.318;2023-05-03T00:41:37;100051.81;;;2.83;80.38
28181;BME280;15464;50.988;10.318;2023-05-03T00:44:07;100056.38;;;2.78;80.60
28181;BME280;15464;50.988;10.318;2023-05-03T00:46:33;100052.38;;;2.68;80.88
28181;BME280;15464;50.988;10.318;2023-05-03T00:49:00;100044.75;;;2.62;80.61
28181;BME280;15464;50.988;10.318;2023-05-03T00:51:27;100050.97;;;2.58;80.85
28181;BME280;15464;50.988;10.318;2023-05-03T00:53:55;100066.00;;;2.53;81.07
28181;BME280;15464;50.988;10.318;2023-05-03T00:56:22;100058.31;;;2.48;80.99
28181;BME280;15464;50.988;10.318;2023-05-03T00:58:52;100055.94;;;2.40;80.81
28181;BME280;15464;50.988;10.318;2023-05-03T01:01:19;100050.81;;;2.37;80.69
28181;BME280;15464;50.988;10.318;2023-05-03T01:03:46;100059.59;;;2.36;81.25
28181;BME280;15464;50.988;10.318;2023-05-03T01:09:20;100056.25;;;2.31;82.05
28181;BME280;15464;50.988;10.318;2023-05-03T01:15:04;100052.19;;;2.23;82.14
28181;BME280;15464;50.988;10.318;2023-05-03T01:17:37;100050.53;;;2.20;82.15
28181;BME280;15464;50.988;10.318;2023-05-03T01:20:06;100050.69;;;2.16;82.72
28181;BME280;15464;50.988;10.318;2023-05-03T01:22:45;100054.22;;;2.15;82.87
28181;BME280;15464;50.988;10.318;2023-05-03T01:25:14;100058.78;;;2.08;82.70
28181;BME280;15464;50.988;10.318;2023-05-03T01:27:41;100057.94;;;2.08;83.36
28181;BME280;15464;50.988;10.318;2023-05-03T01:30:10;100056.19;;;2.08;82.13
28181;BME280;15464;50.988;10.318;2023-05-03T01:33:03;100060.72;;;2.03;82.91
28181;BME280;15464;50.988;10.318;2023-05-03T01:35:46;100066.97;;;1.99;83.04
28181;BME280;15464;50.988;10.318;2023-05-03T01:38:16;100065.41;;;1.93;82.67
28181;BME280;15464;50.988;10.318;2023-05-03T01:40:47;100067.25;;;1.90;82.92
28181;BME280;15464;50.988;10.318;2023-05-03T01:43:15;100069.91;;;1.88;82.86
28181;BME280;15464;50.988;10.318;2023-05-03T01:45:44;100068.34;;;1.83;82.98
28181;BME280;15464;50.988;10.318;2023-05-03T01:48:13;100075.47;;;1.78;82.87
28181;BME280;15464;50.988;10.318;2023-05-03T01:50:40;100071.19;;;1.75;83.29
28181;BME280;15464;50.988;10.318;2023-05-03T01:53:07;100073.88;;;1.74;83.43
28181;BME280;15464;50.988;10.318;2023-05-03T01:55:33;100067.88;;;1.70;83.11
28181;BME280;15464;50.988;10.318;2023-05-03T01:58:00;100066.34;;;1.63;83.59
28181;BME280;15464;50.988;10.318;2023-05-03T02:00:27;100069.94;;;1.60;83.67
28181;BME280;15464;50.988;10.318;2023-05-03T02:02:53;100062.16;;;1.57;83.56
28181;BME280;15464;50.988;10.318;2023-05-03T02:05:20;100079.75;;;1.52;84.02
28181;BME280;15464;50.988;10.318;2023-05-03T02:07:47;100077.25;;;1.49;83.11
28181;BME280;15464;50.988;10.318;2023-05-03T02:10:14;100078.16;;;1.48;83.61
28181;BME280;15464;50.988;10.318;2023-05-03T02:12:44;100089.53;;;1.46;83.69
28181;BME280;15464;50.988;10.318;2023-05-03T02:15:11;100086.94;;;1.46;83.15
28181;BME280;15464;50.988;10.318;2023-05-03T02:17:41;100082.56;;;1.46;83.02
28181;BME280;15464;50.988;10.318;2023-05-03T02:20:08;100081.81;;;1.43;84.13
28181;BME280;15464;50.988;10.318;2023-05-03T02:22:38;100084.53;;;1.38;84.00
28181;BME280;15464;50.988;10.318;2023-05-03T02:25:05;100088.16;;;1.34;84.06
28181;BME280;15464;50.988;10.318;2023-05-03T02:27:32;100080.50;;;1.28;83.73
28181;BME280;15464;50.988;10.318;2023-05-03T02:29:59;100086.63;;;1.27;83.73
28181;BME280;15464;50.988;10.318;2023-05-03T02:32:27;100099.84;;;1.23;83.41
28181;BME280;15464;50.988;10.318;2023-05-03T02:34:53;100100.72;;;1.21;83.32
28181;BME280;15464;50.988;10.318;2023-05-03T02:37:21;100096.44;;;1.19;83.41
28181;BME280;15464;50.988;10.318;2023-05-03T02:39:47;100087.88;;;1.14;84.05
28181;BME280;15464;50.988;10.318;2023-05-03T02:42:14;100092.53;;;1.04;84.64
28181;BME280;15464;50.988;10.318;2023-05-03T02:44:41;100092.53;;;1.04;84.73
28181;BME280;15464;50.988;10.318;2023-05-03T02:47:09;100095.16;;;1.03;84.87
28181;BME280;15464;50.988;10.318;2023-05-03T02:49:35;100088.34;;;0.99;84.55
28181;BME280;15464;50.988;10.318;2023-05-03T02:52:02;100092.78;;;0.95;85.07
28181;BME280;15464;50.988;10.318;2023-05-03T02:54:29;100088.50;;;0.93;84.76
28181;BME280;15464;50.988;10.318;2023-05-03T02:56:55;100085.94;;;0.91;85.26
28181;BME280;15464;50.988;10.318;2023-05-03T02:59:22;100082.53;;;0.88;85.09
28181;BME280;15464;50.988;10.318;2023-05-03T03:01:49;100086.97;;;0.86;85.27
28181;BME280;15464;50.988;10.318;2023-05-03T03:04:16;100081.81;;;0.82;85.61
28181;BME280;15464;50.988;10.318;2023-05-03T03:06:42;100090.63;;;0.78;86.07
28181;BME280;15464;50.988;10.318;2023-05-03T03:09:09;100088.09;;;0.75;86.05
28181;BME280;15464;50.988;10.318;2023-05-03T03:11:37;100087.28;;;0.73;86.09
28181;BME280;15464;50.988;10.318;2023-05-03T03:14:04;100096.88;;;0.73;85.63
28181;BME280;15464;50.988;10.318;2023-05-03T03:16:31;100096.91;;;0.71;86.14
28181;BME280;15464;50.988;10.318;2023-05-03T03:18:58;100097.91;;;0.67;86.43
28181;BME280;15464;50.988;10.318;2023-05-03T03:21:25;100092.72;;;0.66;86.34
28181;BME280;15464;50.988;10.318;2023-05-03T03:23:52;100101.41;;;0.66;85.78
28181;BME280;15464;50.988;10.318;2023-05-03T03:26:18;100096.34;;;0.60;85.29
28181;BME280;15464;50.988;10.318;2023-05-03T03:28:45;100104.31;;;0.56;85.85
28181;BME280;15464;50.988;10.318;2023-05-03T03:31:12;100100.78;;;0.57;85.36
28181;BME280;15464;50.988;10.318;2023-05-03T03:33:38;100106.97;;;0.54;85.10
28181;BME280;15464;50.988;10.318;2023-05-03T03:36:05;100106.84;;;0.57;84.72
28181;BME280;15464;50.988;10.318;2023-05-03T03:38:33;100106.84;;;0.57;84.63
28181;BME280;15464;50.988;10.318;2023-05-03T03:41:00;100104.34;;;0.54;84.39
28181;BME280;15464;50.988;10.318;2023-05-03T03:43:27;100119.19;;;0.52;85.03
28181;BME280;15464;50.988;10.318;2023-05-03T03:45:53;100114.06;;;0.49;85.12
28181;BME280;15464;50.988;10.318;2023-05-03T03:48:20;100120.28;;;0.44;85.10
28181;BME280;15464;50.988;10.318;2023-05-03T03:50:47;100122.94;;;0.42;85.39
28181;BME280;15464;50.988;10.318;2023-05-03T03:53:13;100124.72;;;0.40;85.60
28181;BME280;15464;50.988;10.318;2023-05-03T03:55:40;100128.22;;;0.39;86.45
28181;BME280;15464;50.988;10.318;2023-05-03T03:58:07;100125.66;;;0.37;85.77
28181;BME280;15464;50.988;10.318;2023-05-03T04:00:34;100132.69;;;0.34;86.05
28181;BME280;15464;50.988;10.318;2023-05-03T04:03:04;100127.59;;;0.29;86.91
28181;BME280;15464;50.988;10.318;2023-05-03T04:05:33;100125.06;;;0.26;87.04
28181;BME280;15464;50.988;10.318;2023-05-03T04:08:00;100132.03;;;0.26;87.34
28181;BME280;15464;50.988;10.318;2023-05-03T04:10:26;100130.28;;;0.26;87.24
28181;BME280;15464;50.988;10.318;2023-05-03T04:12:53;100131.16;;;0.25;86.87
28181;BME280;15464;50.988;10.318;2023-05-03T04:15:21;100138.16;;;0.25;87.48
28181;BME280;15464;50.988;10.318;2023-05-03T04:17:47;100140.78;;;0.25;87.70
28181;BME280;15464;50.988;10.318;2023-05-03T04:20:15;100147.75;;;0.23;88.55
28181;BME280;15464;50.988;10.318;2023-05-03T04:22:43;100146.03;;;0.22;88.38
28181;BME280;15464;50.988;10.318;2023-05-03T04:25:12;100145.16;;;0.23;88.08
28181;BME280;15464;50.988;10.318;2023-05-03T04:27:46;100149.47;;;0.24;88.28
28181;BME280;15464;50.988;10.318;2023-05-03T04:30:13;100153.84;;;0.23;88.87
28181;BME280;15464;50.988;10.318;2023-05-03T04:32:41;100158.19;;;0.23;89.94
28181;BME280;15464;50.988;10.318;2023-05-03T04:35:09;100155.56;;;0.24;89.50
28181;BME280;15464;50.988;10.318;2023-05-03T04:37:38;100154.63;;;0.27;89.58
28181;BME280;15464;50.988;10.318;2023-05-03T04:40:06;100160.66;;;0.29;89.87
28181;BME280;15464;50.988;10.318;2023-05-03T04:42:35;100152.84;;;0.29;89.78
28181;BME280;15464;50.988;10.318;2023-05-03T04:45:02;100156.28;;;0.31;89.93
28181;BME280;15464;50.988;10.318;2023-05-03T04:47:29;100154.41;;;0.36;90.25
28181;BME280;15464;50.988;10.318;2023-05-03T04:49:56;100156.00;;;0.42;90.21
28181;BME280;15464;50.988;10.318;2023-05-03T04:52:24;100156.41;;;0.60;89.51
28181;BME280;15464;50.988;10.318;2023-05-03T04:54:50;100155.09;;;0.76;91.01
28181;BME280;15464;50.988;10.318;2023-05-03T04:57:17;100157.16;;;0.96;91.09
28181;BME280;15464;50.988;10.318;2023-05-03T04:59:44;100155.25;;;1.03;90.71
28181;BME280;15464;50.988;10.318;2023-05-03T05:02:11;100147.34;;;1.06;90.45
28181;BME280;15464;50.988;10.318;2023-05-03T05:04:38;100157.69;;;1.09;91.46
28181;BME280;15464;50.988;10.318;2023-05-03T05:07:04;100154.94;;;1.13;91.56
28181;BME280;15464;50.988;10.318;2023-05-03T05:09:31;100156.63;;;1.16;91.09
28181;BME280;15464;50.988;10.318;2023-05-03T05:11:58;100160.81;;;1.21;90.62
28181;BME280;15464;50.988;10.318;2023-05-03T05:14:25;100154.50;;;1.30;91.29
28181;BME280;15464;50.988;10.318;2023-05-03T05:16:53;100162.16;;;1.36;90.72
28181;BME280;15464;50.988;10.318;2023-05-03T05:19:20;100159.44;;;1.39;90.12
28181;BME280;15464;50.988;10.318;2023-05-03T05:21:47;100162.16;;;1.36;89.25
28181;BME280;15464;50.988;10.318;2023-05-03T05:24:13;100163.06;;;1.35;88.73
28181;BME280;15464;50.988;10.318;2023-05-03T05:26:40;100162.22;;;1.33;89.13
28181;BME280;15464;50.988;10.318;2023-05-03T05:29:07;100162.88;;;1.41;89.35
28181;BME280;15464;50.988;10.318;2023-05-03T05:31:34;100167.09;;;1.45;88.77
28181;BME280;15464;50.988;10.318;2023-05-03T05:34:02;100167.03;;;1.48;88.41
28181;BME280;15464;50.988;10.318;2023-05-03T05:36:29;100171.13;;;1.57;89.24
28181;BME280;15464;50.988;10.318;2023-05-03T05:38:56;100166.56;;;1.63;89.00
28181;BME280;15464;50.988;10.318;2023-05-03T05:41:22;100170.75;;;1.69;88.35
28181;BME280;15464;50.988;10.318;2023-05-03T05:43:49;100170.53;;;1.77;88.49
28181;BME280;15464;50.988;10.318;2023-05-03T05:46:16;100171.06;;;1.88;88.60
28181;BME280;15464;50.988;10.318;2023-05-03T05:48:43;100168.19;;;1.97;88.22
28181;BME280;15464;50.988;10.318;2023-05-03T05:51:09;100168.88;;;2.02;88.27
28181;BME280;15464;50.988;10.318;2023-05-03T05:53:36;100173.16;;;2.06;88.30
28181;BME280;15464;50.988;10.318;2023-05-03T05:56:03;100178.94;;;2.16;88.38
28181;BME280;15464;50.988;10.318;2023-05-03T05:58:31;100180.34;;;2.26;87.75
28181;BME280;15464;50.988;10.318;2023-05-03T06:01:01;100184.44;;;2.34;87.51
28181;BME280;15464;50.988;10.318;2023-05-03T06:03:29;100179.81;;;2.42;87.51
28181;BME280;15464;50.988;10.318;2023-05-03T06:05:57;100181.13;;;2.56;88.32
28181;BME280;15464;50.988;10.318;2023-05-03T06:08:24;100175.38;;;2.71;87.40
28181;BME280;15464;50.988;10.318;2023-05-03T06:10:51;100174.94;;;2.83;87.12
28181;BME280;15464;50.988;10.318;2023-05-03T06:13:18;100181.28;;;3.02;87.11
28181;BME280;15464;50.988;10.318;2023-05-03T06:15:45;100177.78;;;3.27;85.87
28181;BME280;15464;50.988;10.318;2023-05-03T06:18:12;100172.53;;;3.50;85.24
28181;BME280;15464;50.988;10.318;2023-05-03T06:20:38;100177.75;;;3.75;84.27
28181;BME280;15464;50.988;10.318;2023-05-03T06:23:05;100171.66;;;3.96;82.92
28181;BME280;15464;50.988;10.318;2023-05-03T06:25:32;100169.13;;;4.16;82.35
28181;BME280;15464;50.988;10.318;2023-05-03T06:27:59;100163.13;;;4.34;81.57
28181;BME280;15464;50.988;10.318;2023-05-03T06:30:26;100158.09;;;4.50;81.82
28181;BME280;15464;50.988;10.318;2023-05-03T06:32:54;100167.88;;;4.68;82.15
28181;BME280;15464;50.988;10.318;2023-05-03T06:35:20;100166.25;;;4.86;82.41
28181;BME280;15464;50.988;10.318;2023-05-03T06:37:47;100160.31;;;5.01;81.36
28181;BME280;15464;50.988;10.318;2023-05-03T06:40:14;100152.34;;;5.23;81.16
28181;BME280;15464;50.988;10.318;2023-05-03T06:42:41;100160.97;;;5.45;80.69
28181;BME280;15464;50.988;10.318;2023-05-03T06:45:08;100152.88;;;5.68;80.11
28181;BME280;15464;50.988;10.318;2023-05-03T06:47:35;100156.13;;;5.94;79.07
28181;BME280;15464;50.988;10.318;2023-05-03T06:50:03;100149.53;;;6.21;76.04
28181;BME280;15464;50.988;10.318;2023-05-03T06:52:30;100153.47;;;6.48;77.76
28181;BME280;15464;50.988;10.318;2023-05-03T06:54:57;100151.31;;;6.74;72.69
28181;BME280;15464;50.988;10.318;2023-05-03T06:57:24;100143.69;;;7.02;72.41
28181;BME280;15464;50.988;10.318;2023-05-03T06:59:54;100145.97;;;7.25;69.28
28181;BME280;15464;50.988;10.318;2023-05-03T07:02:20;100137.09;;;7.44;66.28
28181;BME280;15464;50.988;10.318;2023-05-03T07:04:48;100135.88;;;7.66;64.29
28181;BME280;15464;50.988;10.318;2023-05-03T07:07:15;100136.47;;;7.87;65.04
28181;BME280;15464;50.988;10.318;2023-05-03T07:09:42;100133.56;;;7.76;61.80
28181;BME280;15464;50.988;10.318;2023-05-03T07:12:09;100131.78;;;7.77;64.07
28181;BME280;15464;50.988;10.318;2023-05-03T07:14:37;100126.16;;;8.30;66.22
28181;BME280;15464;50.988;10.318;2023-05-03T07:17:05;100127.94;;;8.29;62.56
28181;BME280;15464;50.988;10.318;2023-05-03T07:19:31;100136.84;;;8.58;62.73
28181;BME280;15464;50.988;10.318;2023-05-03T07:21:58;100131.00;;;8.53;58.65
28181;BME280;15464;50.988;10.318;2023-05-03T07:24:25;100138.28;;;8.64;58.46
28181;BME280;15464;50.988;10.318;2023-05-03T07:26:52;100126.47;;;8.85;58.12
28181;BME280;15464;50.988;10.318;2023-05-03T07:29:19;100128.78;;;9.05;57.88
28181;BME280;15464;50.988;10.318;2023-05-03T07:31:46;100131.88;;;8.98;58.02
28181;BME280;15464;50.988;10.318;2023-05-03T07:34:13;100134.47;;;9.27;57.73
28181;BME280;15464;50.988;10.318;2023-05-03T07:36:40;100127.94;;;9.33;56.70
28181;BME280;15464;50.988;10.318;2023-05-03T07:39:07;100116.75;;;9.70;57.78
28181;BME280;15464;50.988;10.318;2023-05-03T07:41:33;100117.38;;;9.88;55.28
28181;BME280;15464;50.988;10.318;2023-05-03T07:44:00;100117.09;;;9.93;56.96
28181;BME280;15464;50.988;10.318;2023-05-03T07:46:27;100115.31;;;9.79;55.09
28181;BME280;15464;50.988;10.318;2023-05-03T07:48:54;100109.16;;;9.93;53.28
28181;BME280;15464;50.988;10.318;2023-05-03T07:51:20;100114.41;;;10.07;54.11
28181;BME280;15464;50.988;10.318;2023-05-03T07:53:47;100114.41;;;10.07;52.75
28181;BME280;15464;50.988;10.318;2023-05-03T07:56:14;100108.94;;;9.96;52.53
28181;BME280;15464;50.988;10.318;2023-05-03T07:58:41;100106.25;;;10.24;54.72
28181;BME280;15464;50.988;10.318;2023-05-03T08:01:10;100104.25;;;10.13;52.18
28181;BME280;15464;50.988;10.318;2023-05-03T08:03:37;100106.03;;;10.13;52.63
28181;BME280;15464;50.988;10.318;2023-05-03T08:06:04;100107.84;;;10.12;51.65
28181;BME280;15464;50.988;10.318;2023-05-03T08:08:31;100106.25;;;10.24;52.79
28181;BME280;15464;50.988;10.318;2023-05-03T08:10:59;100109.91;;;10.36;52.95
28181;BME280;15464;50.988;10.318;2023-05-03T08:13:26;100104.50;;;10.50;53.69
28181;BME280;15464;50.988;10.318;2023-05-03T08:15:52;100101.00;;;10.37;51.43
28181;BME280;15464;50.988;10.318;2023-05-03T08:18:19;100104.34;;;10.66;52.56
28181;BME280;15464;50.988;10.318;2023-05-03T08:20:49;100094.63;;;10.91;51.25
28181;BME280;15464;50.988;10.318;2023-05-03T08:23:16;100095.16;;;11.09;51.48
28181;BME280;15464;50.988;10.318;2023-05-03T08:25:43;100101.75;;;11.16;51.78
28181;BME280;15464;50.988;10.318;2023-05-03T08:28:10;100100.66;;;11.06;50.74
28181;BME280;15464;50.988;10.318;2023-05-03T08:30:37;100101.31;;;11.22;51.64
28181;BME280;15464;50.988;10.318;2023-05-03T08:33:04;100103.13;;;10.97;49.94
28181;BME280;15464;50.988;10.318;2023-05-03T08:35:31;100103.75;;;11.13;50.78
28181;BME280;15464;50.988;10.318;2023-05-03T08:37:57;100108.81;;;10.78;50.22
28181;BME280;15464;50.988;10.318;2023-05-03T08:40:26;100095.56;;;10.78;50.49
28181;BME280;15464;50.988;10.318;2023-05-03T08:42:54;100097.88;;;10.70;52.18
28181;BME280;15464;50.988;10.318;2023-05-03T08:45:24;100095.53;;;10.65;52.00
28181;BME280;15464;50.988;10.318;2023-05-03T08:47:53;100093.66;;;10.13;52.15
28181;BME280;15464;50.988;10.318;2023-05-03T08:50:21;100090.03;;;10.15;53.29
28181;BME280;15464;50.988;10.318;2023-05-03T08:52:49;100095.19;;;10.18;53.45
28181;BME280;15464;50.988;10.318;2023-05-03T08:55:16;100091.88;;;10.00;52.21
28181;BME280;15464;50.988;10.318;2023-05-03T08:57:42;100090.72;;;9.77;52.46
28181;BME280;15464;50.988;10.318;2023-05-03T09:00:09;100087.84;;;9.94;52.61
28181;BME280;15464;50.988;10.318;2023-05-03T09:02:38;100088.00;;;10.05;52.95
28181;BME280;15464;50.988;10.318;2023-05-03T09:10:32;100088.44;;;10.12;52.50
28181;BME280;15464;50.988;10.318;2023-05-03T09:13:01;100089.59;;;10.08;54.70
28181;BME280;15464;50.988;10.318;2023-05-03T09:15:28;100096.31;;;9.99;52.14
28181;BME280;15464;50.988;10.318;2023-05-03T09:18:25;100084.91;;;9.99;52.50
28181;BME280;15464;50.988;10.318;2023-05-03T09:20:52;100085.72;;;9.99;52.21
28181;BME280;15464;50.988;10.318;2023-05-03T09:25:52;100091.53;;;9.92;53.97
28181;BME280;15464;50.988;10.318;2023-05-03T09:28:19;100080.34;;;10.01;53.24
28181;BME280;15464;50.988;10.318;2023-05-03T09:30:47;100088.66;;;10.09;52.50
28181;BME280;15464;50.988;10.318;2023-05-03T09:33:15;100094.78;;;10.24;53.65
28181;BME280;15464;50.988;10.318;2023-05-03T09:36:01;100091.47;;;10.06;51.60
28181;BME280;15464;50.988;10.318;2023-05-03T09:38:30;100080.88;;;10.06;51.53
28181;BME280;15464;50.988;10.318;2023-05-03T09:40:58;100082.56;;;10.21;51.67
28181;BME280;15464;50.988;10.318;2023-05-03T09:43:25;100084.59;;;10.18;53.09
28181;BME280;15464;50.988;10.318;2023-05-03T09:45:52;100080.38;;;10.28;52.76
28181;BME280;15464;50.988;10.318;2023-05-03T09:48:32;100080.88;;;10.20;52.25
28181;BME280;15464;50.988;10.318;2023-05-03T09:50:59;100077.81;;;10.26;53.25
28181;BME280;15464;50.988;10.318;2023-05-03T09:53:26;100071.72;;;10.51;51.88
28181;BME280;15464;50.988;10.318;2023-05-03T09:55:53;100065.72;;;10.62;51.92
28181;BME280;15464;50.988;10.318;2023-05-03T09:58:21;100072.56;;;10.51;50.15
28181;BME280;15464;50.988;10.318;2023-05-03T10:00:49;100066.50;;;10.49;49.82
28181;BME280;15464;50.988;10.318;2023-05-03T10:03:23;100068.97;;;10.52;50.23
28181;BME280;15464;50.988;10.318;2023-05-03T10:05:53;100068.03;;;10.54;50.46
28181;BME280;15464;50.988;10.318;2023-05-03T10:08:32;100067.53;;;10.74;49.44
28181;BME280;15464;50.988;10.318;2023-05-03T10:11:02;100063.91;;;10.75;50.14
28181;BME280;15464;50.988;10.318;2023-05-03T10:13:29;100072.09;;;10.84;48.55
28181;BME280;15464;50.988;10.318;2023-05-03T10:16:08;100068.41;;;10.74;49.18
28181;BME280;15464;50.988;10.318;2023-05-03T10:18:44;100071.44;;;10.81;49.09
28181;BME280;15464;50.988;10.318;2023-05-03T10:21:17;100071.16;;;10.98;48.82
28181;BME280;15464;50.988;10.318;2023-05-03T10:26:35;100054.81;;;10.91;46.90
28181;BME280;15464;50.988;10.318;2023-05-03T10:29:02;100053.00;;;11.05;48.05
28181;BME280;15464;50.988;10.318;2023-05-03T10:31:45;100053.38;;;11.49;49.45
28181;BME280;15464;50.988;10.318;2023-05-03T10:34:23;100056.28;;;11.21;47.10
28181;BME280;15464;50.988;10.318;2023-05-03T10:36:51;100056.50;;;11.30;49.71
28181;BME280;15464;50.988;10.318;2023-05-03T10:39:19;100055.25;;;11.60;48.21
28181;BME280;15464;50.988;10.318;2023-05-03T10:42:02;100062.25;;;11.86;49.09
28181;BME280;15464;50.988;10.318;2023-05-03T10:47:23;100053.31;;;11.62;46.79
28181;BME280;15464;50.988;10.318;2023-05-03T10:55:13;100050.81;;;11.48;46.46
28181;BME280;15464;50.988;10.318;2023-05-03T10:57:42;100040.44;;;11.81;46.51
28181;BME280;15464;50.988;10.318;2023-05-03T11:00:21;100051.25;;;12.15;46.49
28181;BME280;15464;50.988;10.318;2023-05-03T11:05:35;100038.13;;;12.24;46.03
28181;BME280;15464;50.988;10.318;2023-05-03T11:08:09;100025.97;;;12.44;44.61
28181;BME280;15464;50.988;10.318;2023-05-03T11:10:36;100020.38;;;12.71;46.41
28181;BME280;15464;50.988;10.318;2023-05-03T11:13:03;100020.25;;;12.83;42.80
28181;BME280;15464;50.988;10.318;2023-05-03T11:15:30;100022.81;;;12.74;43.86
28181;BME280;15464;50.988;10.318;2023-05-03T11:17:56;100011.94;;;12.99;44.35
28181;BME280;15464;50.988;10.318;2023-05-03T11:20:23;100017.28;;;13.10;43.05
28181;BME280;15464;50.988;10.318;2023-05-03T11:22:50;100021.66;;;13.22;43.45
28181;BME280;15464;50.988;10.318;2023-05-03T11:25:18;100018.94;;;13.56;45.71
28181;BME280;15464;50.988;10.318;2023-05-03T11:27:45;100016.53;;;13.64;41.21
28181;BME280;15464;50.988;10.318;2023-05-03T11:30:14;100015.63;;;13.86;41.41
28181;BME280;15464;50.988;10.318;2023-05-03T11:32:41;100001.97;;;13.68;40.25
28181;BME280;15464;50.988;10.318;2023-05-03T11:35:09;99998.69;;;14.07;41.68
28181;BME280;15464;50.988;10.318;2023-05-03T11:37:37;99989.22;;;14.46;40.78
28181;BME280;15464;50.988;10.318;2023-05-03T11:40:36;99987.47;;;14.87;41.66
28181;BME280;15464;50.988;10.318;2023-05-03T11:42:58;99988.38;;;14.97;41.88
28181;BME280;15464;50.988;10.318;2023-05-03T11:45:31;99984.31;;;15.33;41.00
28181;BME280;15464;50.988;10.318;2023-05-03T11:48:03;99991.50;;;16.01;42.56
28181;BME280;15464;50.988;10.318;2023-05-03T11:50:53;99986.56;;;15.87;38.10
28181;BME280;15464;50.988;10.318;2023-05-03T11:53:24;99981.94;;;16.28;41.28
28181;BME280;15464;50.988;10.318;2023-05-03T11:55:53;99983.84;;;16.83;42.69
28181;BME280;15464;50.988;10.318;2023-05-03T11:58:24;99994.88;;;16.51;35.49
28181;BME280;15464;50.988;10.318;2023-05-03T12:00:54;99986.03;;;16.32;35.79
28181;BME280;15464;50.988;10.318;2023-05-03T12:03:22;99988.53;;;16.43;37.94
28181;BME280;15464;50.988;10.318;2023-05-03T12:05:56;99985.00;;;17.45;36.39
28181;BME280;15464;50.988;10.318;2023-05-03T12:08:31;99979.88;;;16.87;36.07
28181;BME280;15464;50.988;10.318;2023-05-03T12:11:02;99984.38;;;16.97;36.41
28181;BME280;15464;50.988;10.318;2023-05-03T12:13:33;99980.03;;;17.50;37.46
28181;BME280;15464;50.988;10.318;2023-05-03T12:16:08;99982.97;;;17.66;35.59
28181;BME280;15464;50.988;10.318;2023-05-03T12:18:55;99966.81;;;17.49;37.00
28181;BME280;15464;50.988;10.318;2023-05-03T12:21:46;99976.22;;;17.25;35.56
28181;BME280;15464;50.988;10.318;2023-05-03T12:24:32;99974.00;;;17.48;36.37
28181;BME280;15464;50.988;10.318;2023-05-03T12:27:00;99969.97;;;17.62;38.00
28181;BME280;15464;50.988;10.318;2023-05-03T12:29:28;99958.69;;;17.58;36.46
28181;BME280;15464;50.988;10.318;2023-05-03T12:32:00;99971.72;;;16.89;34.70
28181;BME280;15464;50.988;10.318;2023-05-03T12:34:29;99960.72;;;17.47;36.82
28181;BME280;15464;50.988;10.318;2023-05-03T12:37:01;99957.00;;;17.57;36.41
28181;BME280;15464;50.988;10.318;2023-05-03T12:39:31;99964.41;;;17.46;37.22
28181;BME280;15464;50.988;10.318;2023-05-03T12:41:59;99959.34;;;17.88;36.38
28181;BME280;15464;50.988;10.318;2023-05-03T12:44:31;99961.19;;;17.69;36.96
28181;BME280;15464;50.988;10.318;2023-05-03T12:47:01;99956.41;;;17.63;36.47
28181;BME280;15464;50.988;10.318;2023-05-03T12:49:28;99950.28;;;17.44;35.97
28181;BME280;15464;50.988;10.318;2023-05-03T12:51:55;99957.84;;;17.03;35.70
28181;BME280;15464;50.988;10.318;2023-05-03T12:54:45;99937.59;;;17.91;37.81
28181;BME280;15464;50.988;10.318;2023-05-03T12:57:15;99939.13;;;18.54;37.21
28181;BME280;15464;50.988;10.318;2023-05-03T12:59:48;99932.31;;;18.60;33.56
28181;BME280;15464;50.988;10.318;2023-05-03T13:02:27;99936.84;;;18.60;34.51
28181;BME280;15464;50.988;10.318;2023-05-03T13:04:56;99939.06;;;18.46;34.83
28181;BME280;15464;50.988;10.318;2023-05-03T13:07:26;99937.94;;;18.13;34.54
28181;BME280;15464;50.988;10.318;2023-05-03T13:09:56;99935.41;;;18.12;34.74
28181;BME280;15464;50.988;10.318;2023-05-03T13:12:26;99922.75;;;18.66;34.66
28181;BME280;15464;50.988;10.318;2023-05-03T13:14:53;99929.34;;;18.71;34.10
28181;BME280;15464;50.988;10.318;2023-05-03T13:17:23;99924.84;;;19.14;34.38
28181;BME280;15464;50.988;10.318;2023-05-03T13:19:51;99921.22;;;19.23;32.46
28181;BME280;15464;50.988;10.318;2023-05-03T13:22:18;99921.84;;;19.59;34.05
28181;BME280;15464;50.988;10.318;2023-05-03T13:24:46;99917.06;;;18.69;32.92